Ely, MN

1:55 PM CDT on July 26, 2016 (GMT -0500)
Ely Municipal | | Change Station

Elev 1453 ft 47.82 °N, 91.83 °W | Updated 22 minutes ago

Clear
Clear
79 °F
Feels Like 79 °F
N
5
Wind Variable Wind from North

Today
High -- | Low -- °F
--% Chance of Precip.
Yesterday
High -- | Low -- °F
Precip. -- in
Pressure 29.96 in
Visibility 10.0 miles
Clouds Clear
Dew Point 64 °F
Humidity 61%
Rainfall 1.44 in
Snow Depth Not available.
5:37 AM 8:49 PM
Waning Gibbous, 52% visible
METAR KELO 261833Z AUTO 36004KT 10SM CLR 26/18 A2996 RMK AO2
Pressure 29.96 in
Visibility 10.0 miles
Clouds Clear
Dew Point 64 °F
Humidity 61%
Rainfall 1.44 in
Snow Depth Not available.
5:37 AM 8:49 PM
Waning Gibbous, 52% visible
METAR KELO 261833Z AUTO 36004KT 10SM CLR 26/18 A2996 RMK AO2

10-Day Weather Forecast

Almanac

Astronomy

Jul. 26, 2016 Rise Set
Actual Time
Civil Twilight
Nautical Twilight
Astronomical Twilight
Moon
Length of Visible Light
Length of Day
Tomorrow will be .
, % of the Moon is Illuminated

Today's Extremes

State Highs State Lows

Community

WunderPhotos

Upload Photos

1,927,653 photos uploaded!

WunderBlog® & News

Nearby

Air Quality

  Air Quality AQ Index Pollutant
Not available.

Snow Depth

Station Depth Elevation

Earthquake Activity

City Distance Mag. Time & Date
Minimum magnitude displayed is 2.5.

Coastal Water Temperatures

Place Temperature

Stations

Nearby Weather Stations

Station Location Temp. Windchill Dew Point Humidity Wind Precip. Elev Updated Type
                   

Watches & Warnings

There are currently no watches in effect.